createdAt,value
2022-12-01T00:01:07.206Z,1.31
2022-12-01T00:03:34.046Z,1.43
2022-12-01T00:06:04.194Z,1.42
2022-12-01T00:08:31.932Z,1.14
2022-12-01T00:11:06.997Z,1.15
2022-12-01T00:13:34.382Z,1.10
2022-12-01T00:16:15.325Z,1.17
2022-12-01T00:18:42.435Z,1.08
2022-12-01T00:21:16.774Z,1.21
2022-12-01T00:23:48.018Z,0.90
2022-12-01T00:26:16.128Z,1.26
2022-12-01T00:28:43.134Z,0.91
2022-12-01T00:31:11.120Z,1.09
2022-12-01T00:33:38.202Z,1.07
2022-12-01T00:36:06.288Z,0.95
2022-12-01T00:38:33.848Z,1.11
2022-12-01T00:41:00.608Z,1.05
2022-12-01T00:43:27.228Z,1.02
2022-12-01T00:45:55.023Z,0.86
2022-12-01T00:48:21.885Z,0.78
2022-12-01T00:50:51.170Z,0.65
2022-12-01T00:53:18.085Z,0.63
2022-12-01T00:55:44.850Z,0.56
2022-12-01T00:58:11.465Z,0.60
2022-12-01T01:00:38.682Z,0.52
2022-12-01T01:03:07.054Z,0.50
2022-12-01T01:05:40.188Z,0.67
2022-12-01T01:08:09.079Z,0.48
2022-12-01T01:10:39.989Z,0.68
2022-12-01T01:13:06.726Z,0.71
2022-12-01T01:15:33.696Z,0.32
2022-12-01T01:18:00.498Z,0.65
2022-12-01T01:20:27.096Z,0.52
2022-12-01T01:22:53.740Z,0.50
2022-12-01T01:25:20.352Z,0.37
2022-12-01T01:27:47.023Z,0.21
2022-12-01T01:30:14.058Z,0.52
2022-12-01T01:32:40.695Z,0.49
2022-12-01T01:35:08.235Z,0.66
2022-12-01T01:37:34.955Z,0.57
2022-12-01T01:40:01.657Z,0.69
2022-12-01T01:42:28.410Z,0.42
2022-12-01T01:44:59.095Z,0.34
2022-12-01T01:47:26.607Z,0.42
2022-12-01T01:49:56.353Z,0.22
2022-12-01T01:52:23.741Z,0.33
2022-12-01T01:54:53.517Z,0.25
2022-12-01T01:57:26.794Z,0.13
2022-12-01T01:59:58.120Z,0.34
2022-12-01T02:02:25.650Z,0.32
2022-12-01T02:04:57.303Z,0.54
2022-12-01T02:07:24.114Z,0.46
2022-12-01T02:09:51.185Z,-0.03
2022-12-01T02:12:42.125Z,-0.05
2022-12-01T02:15:46.674Z,0.29
2022-12-01T02:18:32.719Z,0.04
2022-12-01T02:21:17.430Z,-0.04
2022-12-01T02:23:49.728Z,0.13
2022-12-01T02:26:34.276Z,-0.17
2022-12-01T02:29:30.092Z,-0.06
2022-12-01T02:32:21.844Z,0.06
2022-12-01T02:35:14.567Z,0.17
2022-12-01T02:37:51.110Z,-0.07
2022-12-01T02:40:20.945Z,0.16
2022-12-01T02:42:50.574Z,0.13
2022-12-01T02:45:40.992Z,0.18
2022-12-01T02:48:23.998Z,0.16
2022-12-01T02:50:52.619Z,0.15
2022-12-01T02:53:19.836Z,-0.02
2022-12-01T02:55:48.716Z,-0.29
2022-12-01T02:58:15.971Z,-0.02
2022-12-01T03:01:11.622Z,-0.04
2022-12-01T03:04:21.603Z,-0.10
2022-12-01T03:06:56.040Z,-0.19
2022-12-01T03:09:31.611Z,-0.21
2022-12-01T03:12:05.739Z,-0.19
2022-12-01T03:15:21.627Z,-0.30
2022-12-01T03:18:23.625Z,0.03
2022-12-01T03:21:06.544Z,-0.02
2022-12-01T03:23:39.654Z,-0.15
2022-12-01T03:26:09.538Z,-0.52
2022-12-01T03:28:46.152Z,-0.23
2022-12-01T03:31:17.786Z,-0.16
2022-12-01T03:33:52.239Z,-0.16
2022-12-01T03:36:35.555Z,-0.04
2022-12-01T03:39:06.851Z,0.10
2022-12-01T03:41:48.947Z,0.33
2022-12-01T03:44:29.598Z,0.42
2022-12-01T03:47:09.846Z,0.01
2022-12-01T03:49:37.687Z,0.05
2022-12-01T03:52:22.816Z,0.04
2022-12-01T03:55:08.407Z,-0.06
2022-12-01T03:57:48.366Z,0.30
2022-12-01T04:00:15.776Z,0.33
2022-12-01T04:02:42.818Z,0.12
2022-12-01T04:05:09.550Z,0.22
2022-12-01T04:07:39.599Z,0.16
2022-12-01T04:10:07.012Z,-0.06
2022-12-01T04:12:33.727Z,0.14
2022-12-01T04:15:07.992Z,0.13
2022-12-01T04:17:34.960Z,0.08
2022-12-01T04:20:01.912Z,0.12
2022-12-01T04:22:28.619Z,0.25
2022-12-01T04:24:55.337Z,-0.40
2022-12-01T04:27:22.093Z,-0.54
2022-12-01T04:29:49.043Z,-0.19
2022-12-01T04:32:16.589Z,-0.17
2022-12-01T04:34:43.255Z,-0.03
2022-12-01T04:37:10.167Z,-0.20
2022-12-01T04:39:36.802Z,-0.09
2022-12-01T04:42:04.211Z,-0.21
2022-12-01T04:44:34.808Z,-0.35
2022-12-01T04:47:03.550Z,-0.24
2022-12-01T04:49:30.459Z,-0.23
2022-12-01T04:51:57.147Z,-0.22
2022-12-01T04:54:24.024Z,-0.35
2022-12-01T04:56:50.814Z,-0.41
2022-12-01T04:59:17.626Z,-0.13
2022-12-01T05:01:44.775Z,-0.10
2022-12-01T05:04:13.397Z,-0.09
2022-12-01T05:06:40.376Z,0.03
2022-12-01T05:09:07.595Z,-0.01
2022-12-01T05:11:34.375Z,-0.18
2022-12-01T05:14:01.243Z,-0.22
2022-12-01T05:16:31.916Z,-0.24
2022-12-01T05:19:20.149Z,-0.09
2022-12-01T05:21:49.078Z,-0.27
2022-12-01T05:24:17.392Z,-0.21
2022-12-01T05:26:45.155Z,-0.37
2022-12-01T05:29:12.764Z,-0.19
2022-12-01T05:31:39.957Z,-0.34
2022-12-01T05:34:07.994Z,-0.32
2022-12-01T05:36:34.719Z,-0.41
2022-12-01T05:39:01.442Z,-0.40
2022-12-01T05:41:28.314Z,-0.38
2022-12-01T05:43:55.084Z,-0.47
2022-12-01T05:46:21.810Z,-0.27
2022-12-01T05:48:48.517Z,-0.30
2022-12-01T05:51:16.988Z,-0.34
2022-12-01T05:53:44.279Z,-0.28
2022-12-01T05:56:11.004Z,-0.31
2022-12-01T05:58:37.684Z,-0.34
2022-12-01T06:01:04.486Z,-0.33
2022-12-01T06:03:31.199Z,-0.36
2022-12-01T06:05:57.847Z,-0.43
2022-12-01T06:08:24.723Z,-0.60
2022-12-01T06:10:51.397Z,-0.79
2022-12-01T06:13:18.087Z,-0.66
2022-12-01T06:15:44.668Z,-0.53
2022-12-01T06:18:11.337Z,-0.31
2022-12-01T06:20:38.033Z,-0.42
2022-12-01T06:23:04.823Z,-0.41
2022-12-01T06:25:31.479Z,-0.49
2022-12-01T06:27:58.918Z,-0.48
2022-12-01T06:30:25.957Z,-0.38
2022-12-01T06:32:52.628Z,-0.26
2022-12-01T06:35:19.522Z,-0.34
2022-12-01T06:37:46.264Z,-0.07
2022-12-01T06:40:13.239Z,0.02
2022-12-01T06:42:39.867Z,0.03
2022-12-01T06:45:07.137Z,0.11
2022-12-01T06:47:33.871Z,0.05
2022-12-01T06:50:00.780Z,0.13
2022-12-01T06:52:27.437Z,0.12
2022-12-01T06:54:54.099Z,0.07
2022-12-01T06:57:21.070Z,0.05
2022-12-01T06:59:48.160Z,0.07
2022-12-01T07:02:16.828Z,0.21
2022-12-01T07:04:43.595Z,0.20
2022-12-01T07:07:12.045Z,0.09
2022-12-01T07:09:39.432Z,0.24
2022-12-01T07:12:06.644Z,0.12
2022-12-01T07:14:33.656Z,0.19
2022-12-01T07:17:00.336Z,0.12
2022-12-01T07:19:27.267Z,0.21
2022-12-01T07:21:53.970Z,0.36
2022-12-01T07:24:20.616Z,0.47
2022-12-01T07:26:48.158Z,0.44
2022-12-01T07:29:14.921Z,0.28
2022-12-01T07:31:41.618Z,0.26
2022-12-01T07:34:12.086Z,0.42
2022-12-01T07:36:39.153Z,0.34
2022-12-01T07:39:07.606Z,0.41
2022-12-01T07:41:35.580Z,0.57
2022-12-01T07:44:02.923Z,0.61
2022-12-01T07:46:29.653Z,0.54
2022-12-01T07:48:57.074Z,0.54
2022-12-01T07:51:25.675Z,0.43
2022-12-01T07:53:54.331Z,0.71
2022-12-01T07:56:22.152Z,0.65
2022-12-01T07:58:49.155Z,0.64
2022-12-01T08:01:21.804Z,0.45
2022-12-01T08:03:50.313Z,0.37
2022-12-01T08:06:17.846Z,0.36
2022-12-01T08:08:44.907Z,0.42
2022-12-01T08:11:14.475Z,0.59
2022-12-01T08:13:41.941Z,0.32
2022-12-01T08:16:10.526Z,0.35
2022-12-01T08:18:38.959Z,0.53
2022-12-01T08:21:07.198Z,0.56
2022-12-01T08:23:34.424Z,0.78
2022-12-01T08:26:07.153Z,0.98
2022-12-01T08:28:36.330Z,0.81
2022-12-01T08:31:09.145Z,0.99
2022-12-01T08:33:35.964Z,0.83
2022-12-01T08:36:03.595Z,0.73
2022-12-01T08:38:30.419Z,0.70
2022-12-01T08:41:05.164Z,0.70
2022-12-01T08:43:56.603Z,0.73
2022-12-01T08:46:18.490Z,0.84
2022-12-01T08:48:45.356Z,0.86
2022-12-01T08:51:15.697Z,0.86
2022-12-01T08:53:45.806Z,0.65
2022-12-01T08:56:15.613Z,0.89
2022-12-01T08:58:42.670Z,0.81
2022-12-01T09:01:12.380Z,0.79
2022-12-01T09:03:40.222Z,0.82
2022-12-01T09:06:12.111Z,0.76
2022-12-01T09:08:39.099Z,0.76
2022-12-01T09:11:08.540Z,0.77
2022-12-01T09:13:36.415Z,0.88
2022-12-01T09:16:06.003Z,0.97
2022-12-01T09:18:33.425Z,0.81
2022-12-01T09:21:00.957Z,1.17
2022-12-01T09:23:27.712Z,1.14
2022-12-01T09:25:54.311Z,1.02
2022-12-01T09:28:21.077Z,0.82
2022-12-01T09:30:47.880Z,0.71
2022-12-01T09:33:14.604Z,0.84
2022-12-01T09:35:41.333Z,0.96
2022-12-01T09:38:07.994Z,0.93
2022-12-01T09:40:38.316Z,1.12
2022-12-01T09:43:12.894Z,0.98
2022-12-01T09:45:45.261Z,1.07
2022-12-01T09:48:25.603Z,0.95
2022-12-01T09:50:53.012Z,1.02
2022-12-01T09:53:23.810Z,1.02
2022-12-01T09:55:50.832Z,1.00
2022-12-01T09:58:25.755Z,1.15
2022-12-01T10:00:54.194Z,0.90
2022-12-01T10:03:50.542Z,1.15
2022-12-01T10:06:34.063Z,1.51
2022-12-01T10:09:39.143Z,1.58
2022-12-01T10:12:18.005Z,1.70
2022-12-01T10:14:46.579Z,1.20
2022-12-01T10:17:39.507Z,1.45
2022-12-01T10:20:24.450Z,1.14
2022-12-01T10:23:33.302Z,1.24
2022-12-01T10:26:09.933Z,1.22
2022-12-01T10:28:36.506Z,1.03
2022-12-01T10:31:34.626Z,1.36
2022-12-01T10:34:06.300Z,1.43
2022-12-01T10:36:34.661Z,1.13
2022-12-01T10:39:04.808Z,1.17
2022-12-01T10:41:36.134Z,1.68
2022-12-01T10:44:05.749Z,1.60
2022-12-01T10:46:43.393Z,1.52
2022-12-01T10:49:15.295Z,1.55
2022-12-01T10:51:57.434Z,1.93
2022-12-01T10:54:33.103Z,2.06
2022-12-01T10:57:00.832Z,1.92
2022-12-01T11:00:25.489Z,1.74
2022-12-01T11:02:59.667Z,1.40
2022-12-01T11:05:39.073Z,1.47
2022-12-01T11:08:06.075Z,1.69
2022-12-01T11:10:33.887Z,1.52
2022-12-01T11:13:23.951Z,1.93
2022-12-01T11:15:53.315Z,1.84
2022-12-01T11:18:24.454Z,1.69
2022-12-01T11:21:27.790Z,1.66
2022-12-01T11:23:56.216Z,2.05
2022-12-01T11:26:32.353Z,1.88
2022-12-01T11:29:02.588Z,1.69
2022-12-01T11:31:55.755Z,1.70
2022-12-01T11:34:34.268Z,1.72
2022-12-01T11:37:04.421Z,2.08
2022-12-01T11:39:39.407Z,1.82
2022-12-01T11:42:12.259Z,2.34
2022-12-01T11:44:51.359Z,2.23
2022-12-01T11:47:25.119Z,2.17
2022-12-01T11:50:00.003Z,1.96
2022-12-01T11:52:30.845Z,2.26
2022-12-01T11:55:08.449Z,2.11
2022-12-01T11:57:39.049Z,2.43
2022-12-01T12:00:16.345Z,2.02
2022-12-01T12:02:57.952Z,2.16
2022-12-01T12:05:33.439Z,2.09
2022-12-01T12:08:34.991Z,2.06
2022-12-01T12:11:43.281Z,2.31
2022-12-01T12:14:21.973Z,2.08
2022-12-01T12:17:12.672Z,2.39
2022-12-01T12:20:08.505Z,2.43
2022-12-01T12:23:01.289Z,2.52
2022-12-01T12:25:52.070Z,2.57
2022-12-01T12:28:34.454Z,2.09
2022-12-01T12:31:29.629Z,2.14
2022-12-01T12:34:22.899Z,2.30
2022-12-01T12:37:01.301Z,2.48
2022-12-01T12:39:59.210Z,2.55
2022-12-01T12:43:04.407Z,2.59
2022-12-01T12:45:49.543Z,2.75
2022-12-01T12:48:38.627Z,2.70
2022-12-01T12:51:21.099Z,2.37
2022-12-01T12:53:59.865Z,2.68
2022-12-01T12:56:30.510Z,2.65
2022-12-01T12:59:01.324Z,2.47
2022-12-01T13:01:38.460Z,2.75
2022-12-01T13:04:13.578Z,2.56
2022-12-01T13:06:50.056Z,2.50
2022-12-01T13:09:19.433Z,2.50
2022-12-01T13:11:52.012Z,2.76
2022-12-01T13:14:27.903Z,2.86
2022-12-01T13:17:01.577Z,2.36
2022-12-01T13:19:37.170Z,2.36
2022-12-01T13:22:05.868Z,2.63
2022-12-01T13:24:32.856Z,2.28
2022-12-01T13:27:14.114Z,2.09
2022-12-01T13:29:50.094Z,1.90
2022-12-01T13:32:36.820Z,1.97
2022-12-01T13:35:17.554Z,1.76
2022-12-01T13:37:44.221Z,1.71
2022-12-01T13:40:21.836Z,2.02
2022-12-01T13:43:07.053Z,1.83
2022-12-01T13:45:40.019Z,1.56
2022-12-01T13:48:26.447Z,1.57
2022-12-01T13:50:52.989Z,1.79
2022-12-01T13:53:19.580Z,1.96
2022-12-01T13:56:24.303Z,2.33
2022-12-01T13:58:53.822Z,2.33
2022-12-01T14:01:20.879Z,1.96
2022-12-01T14:03:56.986Z,2.10
2022-12-01T14:06:36.084Z,1.59
2022-12-01T14:09:16.643Z,1.36
2022-12-01T14:12:05.761Z,1.25
2022-12-01T14:14:38.956Z,1.04
2022-12-01T14:17:06.380Z,1.22
2022-12-01T14:19:52.055Z,1.42
2022-12-01T14:22:39.180Z,1.53
2022-12-01T14:25:29.137Z,1.46
2022-12-01T14:28:04.418Z,1.28
2022-12-01T14:30:46.172Z,1.23
2022-12-01T14:33:57.804Z,1.08
2022-12-01T14:36:24.421Z,1.24
2022-12-01T14:38:54.608Z,1.53
2022-12-01T14:41:46.091Z,1.46
2022-12-01T14:44:36.314Z,1.52
2022-12-01T14:47:11.777Z,1.67
2022-12-01T14:49:42.058Z,1.68
2022-12-01T14:52:29.700Z,1.80
2022-12-01T14:54:59.366Z,1.80
2022-12-01T14:57:32.575Z,1.80
2022-12-01T15:00:10.936Z,1.44
2022-12-01T15:02:48.594Z,1.67
2022-12-01T15:05:20.586Z,1.50
2022-12-01T15:07:50.215Z,1.56
2022-12-01T15:10:35.343Z,1.55
2022-12-01T15:13:30.756Z,1.50
2022-12-01T15:15:58.811Z,1.64
2022-12-01T15:18:33.818Z,1.61
2022-12-01T15:21:12.141Z,1.48
2022-12-01T15:23:54.120Z,1.56
2022-12-01T15:26:23.924Z,1.57
2022-12-01T15:29:03.220Z,1.72
2022-12-01T15:31:30.015Z,1.44
2022-12-01T15:33:56.948Z,1.50
2022-12-01T15:36:24.027Z,1.58
2022-12-01T15:38:50.830Z,1.63
2022-12-01T15:41:29.491Z,1.42
2022-12-01T15:43:58.905Z,1.50
2022-12-01T15:46:31.636Z,1.67
2022-12-01T15:49:09.390Z,1.73
2022-12-01T15:51:36.295Z,1.58
2022-12-01T15:54:03.637Z,1.18
2022-12-01T15:56:37.987Z,1.44
2022-12-01T15:59:13.559Z,1.30
2022-12-01T16:01:44.317Z,1.49
2022-12-01T16:04:26.287Z,1.56
2022-12-01T16:07:03.288Z,1.42
2022-12-01T16:09:35.771Z,1.25
2022-12-01T16:12:04.477Z,1.27
2022-12-01T16:14:32.316Z,1.13
2022-12-01T16:17:00.099Z,1.25
2022-12-01T16:19:32.424Z,1.20
2022-12-01T16:22:11.539Z,1.15
2022-12-01T16:24:46.656Z,1.02
2022-12-01T16:27:23.674Z,1.13
2022-12-01T16:30:00.841Z,0.94
2022-12-01T16:32:35.568Z,0.97
2022-12-01T16:35:04.265Z,0.78
2022-12-01T16:37:31.432Z,0.93
2022-12-01T16:39:58.749Z,1.05
2022-12-01T16:42:25.399Z,1.13
2022-12-01T16:44:52.797Z,1.31
2022-12-01T16:47:24.547Z,1.37
2022-12-01T16:49:52.378Z,1.43
2022-12-01T16:52:43.692Z,1.52
2022-12-01T16:55:24.046Z,1.63
2022-12-01T16:57:50.693Z,1.60
2022-12-01T17:00:17.610Z,1.58
2022-12-01T17:02:44.373Z,1.58
2022-12-01T17:05:11.737Z,1.54
2022-12-01T17:07:38.445Z,1.62
2022-12-01T17:10:06.670Z,1.57
2022-12-01T17:12:33.333Z,1.42
2022-12-01T17:14:59.954Z,1.57
2022-12-01T17:17:29.363Z,1.49
2022-12-01T17:19:56.179Z,1.43
2022-12-01T17:22:23.067Z,1.10
2022-12-01T17:24:50.220Z,1.11
2022-12-01T17:27:17.179Z,1.06
2022-12-01T17:29:46.254Z,1.22
2022-12-01T17:32:14.207Z,1.22
2022-12-01T17:34:41.155Z,1.31
2022-12-01T17:37:10.115Z,1.50
2022-12-01T17:39:36.811Z,1.31
2022-12-01T17:42:03.827Z,1.31
2022-12-01T17:44:30.440Z,1.39
2022-12-01T17:46:57.238Z,1.47
2022-12-01T17:49:23.902Z,1.31
2022-12-01T17:51:50.646Z,1.24
2022-12-01T17:54:17.301Z,1.39
2022-12-01T17:56:43.957Z,1.49
2022-12-01T17:59:10.725Z,1.47
2022-12-01T18:01:37.642Z,1.52
2022-12-01T18:04:04.539Z,1.57
2022-12-01T18:06:31.428Z,1.63
2022-12-01T18:09:00.656Z,1.46
2022-12-01T18:11:27.974Z,1.42
2022-12-01T18:13:54.840Z,1.36
2022-12-01T18:16:27.032Z,0.93
2022-12-01T18:18:54.765Z,1.27
2022-12-01T18:21:23.598Z,1.33
2022-12-01T18:23:52.270Z,1.50
2022-12-01T18:26:20.489Z,1.56
2022-12-01T18:28:47.200Z,1.52
2022-12-01T18:31:15.962Z,1.52
2022-12-01T18:33:44.017Z,1.63
2022-12-01T18:36:38.562Z,1.57
2022-12-01T18:39:07.724Z,1.46
2022-12-01T18:41:35.496Z,1.55
2022-12-01T18:44:02.769Z,1.37
2022-12-01T18:46:29.609Z,1.26
2022-12-01T18:49:04.705Z,1.22
2022-12-01T18:51:33.604Z,1.09
2022-12-01T18:54:01.588Z,1.24
2022-12-01T18:56:29.424Z,1.39
2022-12-01T18:58:58.025Z,1.24
2022-12-01T19:01:27.447Z,1.31
2022-12-01T19:03:55.541Z,1.47
2022-12-01T19:06:23.407Z,1.56
2022-12-01T19:08:52.041Z,1.58
2022-12-01T19:11:18.832Z,1.50
2022-12-01T19:13:46.183Z,1.57
2022-12-01T19:16:15.459Z,1.66
2022-12-01T19:18:42.870Z,1.50
2022-12-01T19:21:12.559Z,1.64
2022-12-01T19:23:40.224Z,1.59
2022-12-01T19:26:10.112Z,1.10
2022-12-01T19:28:37.450Z,1.03
2022-12-01T19:31:08.931Z,0.92
2022-12-01T19:33:35.706Z,0.95
2022-12-01T19:36:13.729Z,1.06
2022-12-01T19:38:40.720Z,1.25
2022-12-01T19:41:08.977Z,1.23
2022-12-01T19:43:36.460Z,1.26
2022-12-01T19:46:12.555Z,1.37
2022-12-01T19:48:39.588Z,1.35
2022-12-01T19:51:07.030Z,1.32
2022-12-01T19:53:34.272Z,1.47
2022-12-01T19:56:05.092Z,1.46
2022-12-01T19:58:35.285Z,1.43
2022-12-01T20:01:07.165Z,1.27
2022-12-01T20:03:35.832Z,1.06
2022-12-01T20:06:04.618Z,1.21
2022-12-01T20:08:35.567Z,1.37
2022-12-01T20:11:06.262Z,1.37
2022-12-01T20:13:37.894Z,1.39
2022-12-01T20:16:06.017Z,1.45
2022-12-01T20:18:33.097Z,0.98
2022-12-01T20:21:10.741Z,0.96
2022-12-01T20:23:37.438Z,1.08
2022-12-01T20:26:06.975Z,1.20
2022-12-01T20:28:34.218Z,1.23
2022-12-01T20:31:01.026Z,1.24
2022-12-01T20:33:28.302Z,1.25
2022-12-01T20:35:55.045Z,1.20
2022-12-01T20:38:27.022Z,1.29
2022-12-01T20:40:54.400Z,1.44
2022-12-01T20:43:21.109Z,1.50
2022-12-01T20:45:47.842Z,1.33
2022-12-01T20:48:14.694Z,1.30
2022-12-01T20:50:41.361Z,1.37
2022-12-01T20:53:08.047Z,1.47
2022-12-01T20:55:36.751Z,1.54
2022-12-01T20:58:10.300Z,1.52
2022-12-01T21:00:40.339Z,1.63
2022-12-01T21:03:07.169Z,1.63
2022-12-01T21:05:33.918Z,1.58
2022-12-01T21:08:01.376Z,1.62
2022-12-01T21:10:28.472Z,1.39
2022-12-01T21:13:18.261Z,0.48
2022-12-01T21:16:01.845Z,0.82
2022-12-01T21:18:41.371Z,0.91
2022-12-01T21:21:21.249Z,1.07
2022-12-01T21:23:53.696Z,1.18
2022-12-01T21:26:20.364Z,1.26
2022-12-01T21:28:47.096Z,1.23
2022-12-01T21:31:15.314Z,1.15
2022-12-01T21:33:42.530Z,1.33
2022-12-01T21:36:21.764Z,1.47
2022-12-01T21:38:53.280Z,1.50
2022-12-01T21:41:28.126Z,1.52
2022-12-01T21:44:00.241Z,1.10
2022-12-01T21:46:27.553Z,1.02
2022-12-01T21:48:54.645Z,1.23
2022-12-01T21:51:23.204Z,1.33
2022-12-01T21:53:51.409Z,1.47
2022-12-01T21:56:24.448Z,1.52
2022-12-01T21:58:52.395Z,1.49
2022-12-01T22:01:32.505Z,1.45
2022-12-01T22:04:02.626Z,1.50
2022-12-01T22:06:38.070Z,1.48
2022-12-01T22:09:31.276Z,1.35
2022-12-01T22:12:08.292Z,1.49
2022-12-01T22:14:36.100Z,1.51
2022-12-01T22:17:18.532Z,1.46
2022-12-01T22:19:49.689Z,1.50
2022-12-01T22:22:23.676Z,1.46
2022-12-01T22:24:59.486Z,1.52
2022-12-01T22:27:39.414Z,1.53
2022-12-01T22:30:05.991Z,1.55
2022-12-01T22:32:57.116Z,1.45
2022-12-01T22:35:28.422Z,1.27
2022-12-01T22:38:15.177Z,1.24
2022-12-01T22:41:03.403Z,1.49
2022-12-01T22:43:39.149Z,1.57
2022-12-01T22:46:25.869Z,1.54
2022-12-01T22:49:13.564Z,1.50
2022-12-01T22:51:47.929Z,1.15
2022-12-01T22:54:14.505Z,1.38
2022-12-01T22:57:05.394Z,1.38
2022-12-01T22:59:36.632Z,1.22
2022-12-01T23:02:25.166Z,1.37
2022-12-01T23:05:07.552Z,1.41
2022-12-01T23:07:36.954Z,1.40
2022-12-01T23:10:17.652Z,1.13
2022-12-01T23:12:46.183Z,0.96
2022-12-01T23:15:32.160Z,0.67
2022-12-01T23:18:22.136Z,0.60
2022-12-01T23:20:51.842Z,0.76
2022-12-01T23:23:21.369Z,0.70
2022-12-01T23:25:50.492Z,0.65
2022-12-01T23:28:18.408Z,0.61
2022-12-01T23:30:47.681Z,0.47
2022-12-01T23:33:28.715Z,0.47
2022-12-01T23:36:05.521Z,0.42
2022-12-01T23:38:38.680Z,0.32
2022-12-01T23:41:08.309Z,0.47
2022-12-01T23:43:42.694Z,0.32
2022-12-01T23:46:18.925Z,0.26
2022-12-01T23:48:49.235Z,0.43
2022-12-01T23:51:18.396Z,0.49
2022-12-01T23:53:46.681Z,0.59
2022-12-01T23:56:19.734Z,0.51
2022-12-01T23:58:46.529Z,0.28
